MTT weather

Minatitlán/Coatzacoalcos National Airport
Minatitlán, Veracruz, Mexico

Public forecast

Using degrees Celsius for public forecast. Weather courtesy of forecast.io.

Current aviation weather report (METAR) for Minatitlán/Coatzacoalcos National Airport

Report is more than 6 hours old.

Retrieved 2020/01/23 00:43 UTC (7 hours ago):

MMMT 230043Z 36010KT 7SM SCT100 23/19 A2990 RMK 8/020

Aviation forecast (TAF) for Minatitlán/Coatzacoalcos National Airport

Retrieved 2020/01/23 06:46 UTC (34 minutes ago):

TAF MMMT 230539Z 2306/2406 36008KT P6SM SCT100 FM231800 36010KT P6SM SCT020 BKN100 BKN250 FM240500 36008KT P6SM SCT020 SCT100